sensor_id;sensor_type;location;lat;lon;timestamp;pressure;altitude;pressure_sealevel;temperature;humidity
46724;BME280;32463;48.298;11.620;2023-04-26T00:00:27;96245.38;;;4.54;100.00
46724;BME280;32463;48.298;11.620;2023-04-26T00:02:54;96251.91;;;4.58;100.00
46724;BME280;32463;48.298;11.620;2023-04-26T00:05:20;96239.06;;;4.58;100.00
46724;BME280;32463;48.298;11.620;2023-04-26T00:07:47;96236.75;;;4.55;100.00
46724;BME280;32463;48.298;11.620;2023-04-26T00:10:14;96244.31;;;4.57;100.00
46724;BME280;32463;48.298;11.620;2023-04-26T00:12:41;96234.88;;;4.57;100.00
46724;BME280;32463;48.298;11.620;2023-04-26T00:15:08;96236.75;;;4.55;100.00
46724;BME280;32463;48.298;11.620;2023-04-26T00:17:34;96241.19;;;4.53;100.00
46724;BME280;32463;48.298;11.620;2023-04-26T00:20:02;96237.56;;;4.56;100.00
46724;BME280;32463;48.298;11.620;2023-04-26T00:22:31;96231.63;;;4.55;100.00
46724;BME280;32463;48.298;11.620;2023-04-26T00:24:57;96235.00;;;4.56;100.00
46724;BME280;32463;48.298;11.620;2023-04-26T00:27:24;96232.03;;;4.60;100.00
46724;BME280;32463;48.298;11.620;2023-04-26T00:29:50;96235.03;;;4.65;100.00
46724;BME280;32463;48.298;11.620;2023-04-26T00:32:17;96228.97;;;4.66;100.00
46724;BME280;32463;48.298;11.620;2023-04-26T00:34:43;96232.72;;;4.62;100.00
46724;BME280;32463;48.298;11.620;2023-04-26T00:37:10;96244.63;;;4.63;100.00
46724;BME280;32463;48.298;11.620;2023-04-26T00:39:36;96244.06;;;4.60;100.00
46724;BME280;32463;48.298;11.620;2023-04-26T00:42:02;96247.56;;;4.59;100.00
46724;BME280;32463;48.298;11.620;2023-04-26T00:44:30;96246.78;;;4.58;100.00
46724;BME280;32463;48.298;11.620;2023-04-26T00:46:56;96236.75;;;4.55;100.00
46724;BME280;32463;48.298;11.620;2023-04-26T00:49:24;96244.06;;;4.60;100.00
46724;BME280;32463;48.298;11.620;2023-04-26T00:51:51;96239.72;;;4.60;100.00
46724;BME280;32463;48.298;11.620;2023-04-26T00:54:19;96229.59;;;4.59;100.00
46724;BME280;32463;48.298;11.620;2023-04-26T00:56:46;96239.19;;;4.57;100.00
46724;BME280;32463;48.298;11.620;2023-04-26T00:59:16;96237.84;;;4.62;100.00
46724;BME280;32463;48.298;11.620;2023-04-26T01:01:42;96234.34;;;4.63;100.00
46724;BME280;32463;48.298;11.620;2023-04-26T01:04:09;96234.34;;;4.63;100.00
46724;BME280;32463;48.298;11.620;2023-04-26T01:06:38;96234.59;;;4.60;100.00
46724;BME280;32463;48.298;11.620;2023-04-26T01:09:05;96245.56;;;4.62;100.00
46724;BME280;32463;48.298;11.620;2023-04-26T01:11:35;96245.31;;;4.65;100.00
46724;BME280;32463;48.298;11.620;2023-04-26T01:14:04;96249.75;;;4.63;100.00
46724;BME280;32463;48.298;11.620;2023-04-26T01:16:32;96254.66;;;4.66;100.00
46724;BME280;32463;48.298;11.620;2023-04-26T01:19:09;96251.13;;;4.67;100.00
46724;BME280;32463;48.298;11.620;2023-04-26T01:21:36;96241.81;;;4.66;100.00
46724;BME280;32463;48.298;11.620;2023-04-26T01:24:03;96240.88;;;4.67;100.00
46724;BME280;32463;48.298;11.620;2023-04-26T01:26:30;96235.72;;;4.67;100.00
46724;BME280;32463;48.298;11.620;2023-04-26T01:28:57;96244.13;;;4.69;100.00
46724;BME280;32463;48.298;11.620;2023-04-26T01:31:23;96242.50;;;4.68;100.00
46724;BME280;32463;48.298;11.620;2023-04-26T01:33:50;96245.06;;;4.68;100.00
46724;BME280;32463;48.298;11.620;2023-04-26T01:36:17;96245.19;;;4.67;100.00
46724;BME280;32463;48.298;11.620;2023-04-26T01:38:43;96250.91;;;4.70;100.00
46724;BME280;32463;48.298;11.620;2023-04-26T01:41:09;96255.34;;;4.68;100.00
46724;BME280;32463;48.298;11.620;2023-04-26T01:43:36;96257.91;;;4.68;100.00
46724;BME280;32463;48.298;11.620;2023-04-26T01:46:02;96260.47;;;4.68;100.00
46724;BME280;32463;48.298;11.620;2023-04-26T01:48:29;96258.72;;;4.69;100.00
46724;BME280;32463;48.298;11.620;2023-04-26T01:50:55;96254.66;;;4.66;100.00
46724;BME280;32463;48.298;11.620;2023-04-26T01:53:23;96252.78;;;4.68;100.00
46724;BME280;32463;48.298;11.620;2023-04-26T01:55:49;96255.66;;;4.75;100.00
46724;BME280;32463;48.298;11.620;2023-04-26T01:58:16;96258.22;;;4.75;100.00
46724;BME280;32463;48.298;11.620;2023-04-26T02:00:42;96255.34;;;4.68;100.00
46724;BME280;32463;48.298;11.620;2023-04-26T02:03:08;96258.72;;;4.69;100.00
46724;BME280;32463;48.298;11.620;2023-04-26T02:05:35;96259.78;;;4.66;100.00
46724;BME280;32463;48.298;11.620;2023-04-26T02:08:01;96251.38;;;4.64;100.00
46724;BME280;32463;48.298;11.620;2023-04-26T02:10:28;96261.41;;;4.67;100.00
46724;BME280;32463;48.298;11.620;2023-04-26T02:12:55;96257.34;;;4.65;100.00
46724;BME280;32463;48.298;11.620;2023-04-26T02:15:21;96265.03;;;4.65;100.00
46724;BME280;32463;48.298;11.620;2023-04-26T02:17:47;96263.28;;;4.65;100.00
46724;BME280;32463;48.298;11.620;2023-04-26T02:20:14;96259.22;;;4.63;100.00
46724;BME280;32463;48.298;11.620;2023-04-26T02:22:41;96269.13;;;4.67;100.00
46724;BME280;32463;48.298;11.620;2023-04-26T02:25:07;96263.28;;;4.65;100.00
46724;BME280;32463;48.298;11.620;2023-04-26T02:27:34;96259.78;;;4.66;100.00
46724;BME280;32463;48.298;11.620;2023-04-26T02:30:00;96260.59;;;4.67;100.00
46724;BME280;32463;48.298;11.620;2023-04-26T02:32:27;96254.41;;;4.69;100.00
46724;BME280;32463;48.298;11.620;2023-04-26T02:34:54;96259.78;;;4.66;100.00
46724;BME280;32463;48.298;11.620;2023-04-26T02:37:20;96261.41;;;4.67;100.00
46724;BME280;32463;48.298;11.620;2023-04-26T02:39:50;96252.19;;;4.65;100.00
46724;BME280;32463;48.298;11.620;2023-04-26T02:42:17;96252.19;;;4.65;100.00
46724;BME280;32463;48.298;11.620;2023-04-26T02:44:43;96259.53;;;4.69;100.00
46724;BME280;32463;48.298;11.620;2023-04-26T02:47:10;96252.06;;;4.66;100.00
46724;BME280;32463;48.298;11.620;2023-04-26T02:49:36;96246.25;;;4.64;100.00
46724;BME280;32463;48.298;11.620;2023-04-26T02:52:03;96251.38;;;4.64;100.00
46724;BME280;32463;48.298;11.620;2023-04-26T02:54:29;96248.13;;;4.62;100.00
46724;BME280;32463;48.298;11.620;2023-04-26T02:56:57;96249.06;;;4.61;100.00
46724;BME280;32463;48.298;11.620;2023-04-26T02:59:24;96243.00;;;4.62;100.00
46724;BME280;32463;48.298;11.620;2023-04-26T03:01:50;96241.38;;;4.61;100.00
46724;BME280;32463;48.298;11.620;2023-04-26T03:04:16;96243.94;;;4.61;100.00
46724;BME280;32463;48.298;11.620;2023-04-26T03:06:43;96249.59;;;4.55;100.00
46724;BME280;32463;48.298;11.620;2023-04-26T03:09:10;96254.03;;;4.53;100.00
46724;BME280;32463;48.298;11.620;2023-04-26T03:11:36;96251.00;;;4.48;100.00
46724;BME280;32463;48.298;11.620;2023-04-26T03:14:03;96247.75;;;4.46;100.00
46724;BME280;32463;48.298;11.620;2023-04-26T03:16:29;96263.16;;;4.46;100.00
46724;BME280;32463;48.298;11.620;2023-04-26T03:18:55;96259.88;;;4.44;100.00
46724;BME280;32463;48.298;11.620;2023-04-26T03:21:22;96263.16;;;4.46;100.00
46724;BME280;32463;48.298;11.620;2023-04-26T03:23:48;96258.00;;;4.46;100.00
46724;BME280;32463;48.298;11.620;2023-04-26T03:26:15;96259.53;;;4.49;100.00
46724;BME280;32463;48.298;11.620;2023-04-26T03:28:41;96255.31;;;4.48;100.00
46724;BME280;32463;48.298;11.620;2023-04-26T03:31:08;96253.56;;;4.48;100.00
46724;BME280;32463;48.298;11.620;2023-04-26T03:33:34;96263.72;;;4.50;100.00
46724;BME280;32463;48.298;11.620;2023-04-26T03:36:00;96261.16;;;4.50;100.00
46724;BME280;32463;48.298;11.620;2023-04-26T03:38:27;96266.16;;;4.51;100.00
46724;BME280;32463;48.298;11.620;2023-04-26T03:40:53;96270.13;;;4.55;100.00
46724;BME280;32463;48.298;11.620;2023-04-26T03:43:20;96267.66;;;4.54;100.00
46724;BME280;32463;48.298;11.620;2023-04-26T03:45:48;96267.09;;;4.50;100.00
46724;BME280;32463;48.298;11.620;2023-04-26T03:48:15;96269.44;;;4.53;100.00
46724;BME280;32463;48.298;11.620;2023-04-26T03:50:42;96275.50;;;4.52;100.00
46724;BME280;32463;48.298;11.620;2023-04-26T03:53:10;96265.59;;;4.48;100.00
46724;BME280;32463;48.298;11.620;2023-04-26T03:55:37;96271.53;;;4.48;100.00
46724;BME280;32463;48.298;11.620;2023-04-26T03:58:03;96271.78;;;4.45;100.00
46724;BME280;32463;48.298;11.620;2023-04-26T04:00:33;96276.91;;;4.45;100.00
46724;BME280;32463;48.298;11.620;2023-04-26T04:03:00;96283.22;;;4.41;100.00
46724;BME280;32463;48.298;11.620;2023-04-26T04:05:26;96276.00;;;4.35;100.00
46724;BME280;32463;48.298;11.620;2023-04-26T04:07:53;96281.38;;;4.32;100.00
46724;BME280;32463;48.298;11.620;2023-04-26T04:10:21;96275.13;;;4.25;100.00
46724;BME280;32463;48.298;11.620;2023-04-26T04:12:49;96278.16;;;4.19;100.00
46724;BME280;32463;48.298;11.620;2023-04-26T04:15:17;96282.84;;;4.14;100.00
46724;BME280;32463;48.298;11.620;2023-04-26T04:17:44;96285.41;;;4.14;100.00
46724;BME280;32463;48.298;11.620;2023-04-26T04:20:11;96293.22;;;4.12;100.00
46724;BME280;32463;48.298;11.620;2023-04-26T04:22:37;96289.84;;;4.12;100.00
46724;BME280;32463;48.298;11.620;2023-04-26T04:25:07;96289.59;;;4.15;100.00
46724;BME280;32463;48.298;11.620;2023-04-26T04:27:35;96282.84;;;4.14;100.00
46724;BME280;32463;48.298;11.620;2023-04-26T04:30:05;96282.03;;;4.13;100.00
46724;BME280;32463;48.298;11.620;2023-04-26T04:32:33;96284.47;;;4.15;100.00
46724;BME280;32463;48.298;11.620;2023-04-26T04:35:00;96298.69;;;4.19;100.00
46724;BME280;32463;48.298;11.620;2023-04-26T04:37:26;96298.69;;;4.19;100.00
46724;BME280;32463;48.298;11.620;2023-04-26T04:39:54;96291.94;;;4.18;100.00
46724;BME280;32463;48.298;11.620;2023-04-26T04:42:20;96297.53;;;4.23;100.00
46724;BME280;32463;48.298;11.620;2023-04-26T04:44:47;96306.84;;;4.24;100.00
46724;BME280;32463;48.298;11.620;2023-04-26T04:47:14;96308.03;;;4.20;100.00
46724;BME280;32463;48.298;11.620;2023-04-26T04:49:41;96307.22;;;4.19;100.00
46724;BME280;32463;48.298;11.620;2023-04-26T04:52:08;96312.34;;;4.19;100.00
46724;BME280;32463;48.298;11.620;2023-04-26T04:54:34;96311.53;;;4.19;100.00
46724;BME280;32463;48.298;11.620;2023-04-26T04:57:02;96308.97;;;4.19;100.00
46724;BME280;32463;48.298;11.620;2023-04-26T04:59:28;96317.13;;;4.24;100.00
46724;BME280;32463;48.298;11.620;2023-04-26T05:01:55;96323.66;;;4.28;100.00
46724;BME280;32463;48.298;11.620;2023-04-26T05:04:22;96319.44;;;4.27;100.00
46724;BME280;32463;48.298;11.620;2023-04-26T05:06:48;96320.56;;;4.34;100.00
46724;BME280;32463;48.298;11.620;2023-04-26T05:09:15;96333.38;;;4.45;100.00
46724;BME280;32463;48.298;11.620;2023-04-26T05:11:41;96325.22;;;4.51;100.00
46724;BME280;32463;48.298;11.620;2023-04-26T05:14:08;96338.69;;;4.64;100.00
46724;BME280;32463;48.298;11.620;2023-04-26T05:16:35;96333.78;;;4.61;100.00
46724;BME280;32463;48.298;11.620;2023-04-26T05:19:02;96336.81;;;4.66;100.00
46724;BME280;32463;48.298;11.620;2023-04-26T05:21:29;96334.38;;;4.65;100.00
46724;BME280;32463;48.298;11.620;2023-04-26T05:23:56;96337.22;;;4.83;100.00
46724;BME280;32463;48.298;11.620;2023-04-26T05:26:22;96345.06;;;4.81;100.00
46724;BME280;32463;48.298;11.620;2023-04-26T05:28:49;96329.53;;;4.83;100.00
46724;BME280;32463;48.298;11.620;2023-04-26T05:31:16;96340.78;;;4.91;100.00
46724;BME280;32463;48.298;11.620;2023-04-26T05:33:42;96337.53;;;4.89;100.00
46724;BME280;32463;48.298;11.620;2023-04-26T05:36:09;96344.38;;;5.00;100.00
46724;BME280;32463;48.298;11.620;2023-04-26T05:38:35;96336.63;;;5.11;100.00
46724;BME280;32463;48.298;11.620;2023-04-26T05:41:02;96338.31;;;5.22;100.00
46724;BME280;32463;48.298;11.620;2023-04-26T05:43:29;96342.94;;;5.28;100.00
46724;BME280;32463;48.298;11.620;2023-04-26T05:45:55;96337.88;;;5.37;100.00
46724;BME280;32463;48.298;11.620;2023-04-26T05:48:23;96347.47;;;5.35;100.00
46724;BME280;32463;48.298;11.620;2023-04-26T05:50:50;96344.56;;;5.29;100.00
46724;BME280;32463;48.298;11.620;2023-04-26T05:53:18;96350.91;;;5.46;100.00
46724;BME280;32463;48.298;11.620;2023-04-26T05:55:44;96357.34;;;5.61;100.00
46724;BME280;32463;48.298;11.620;2023-04-26T05:58:11;96354.78;;;5.61;100.00
46724;BME280;32463;48.298;11.620;2023-04-26T06:00:38;96354.34;;;5.56;100.00
46724;BME280;32463;48.298;11.620;2023-04-26T06:03:05;96351.97;;;5.43;100.00
46724;BME280;32463;48.298;11.620;2023-04-26T06:05:31;96353.66;;;5.54;100.00
46724;BME280;32463;48.298;11.620;2023-04-26T06:07:58;96362.69;;;5.69;100.00
46724;BME280;32463;48.298;11.620;2023-04-26T06:10:25;96364.75;;;5.75;100.00
46724;BME280;32463;48.298;11.620;2023-04-26T06:12:52;96374.81;;;5.88;100.00
46724;BME280;32463;48.298;11.620;2023-04-26T06:15:18;96367.06;;;5.78;100.00
46724;BME280;32463;48.298;11.620;2023-04-26T06:17:45;96371.31;;;5.89;100.00
46724;BME280;32463;48.298;11.620;2023-04-26T06:20:11;96365.03;;;6.02;100.00
46724;BME280;32463;48.298;11.620;2023-04-26T06:22:38;96359.84;;;5.93;100.00
46724;BME280;32463;48.298;11.620;2023-04-26T06:25:05;96360.69;;;5.82;100.00
46724;BME280;32463;48.298;11.620;2023-04-26T06:27:32;96354.78;;;5.61;100.00
46724;BME280;32463;48.298;11.620;2023-04-26T06:29:58;96359.50;;;5.86;100.00
46724;BME280;32463;48.298;11.620;2023-04-26T06:32:25;96358.41;;;5.79;100.00
46724;BME280;32463;48.298;11.620;2023-04-26T06:34:52;96356.16;;;5.65;100.00
46724;BME280;32463;48.298;11.620;2023-04-26T06:37:19;96364.81;;;5.64;100.00
46724;BME280;32463;48.298;11.620;2023-04-26T06:39:45;96372.16;;;5.68;100.00
46724;BME280;32463;48.298;11.620;2023-04-26T06:42:11;96367.19;;;5.77;100.00
46724;BME280;32463;48.298;11.620;2023-04-26T06:44:38;96367.81;;;5.69;100.00
46724;BME280;32463;48.298;11.620;2023-04-26T06:47:04;96379.38;;;5.74;100.00
46724;BME280;32463;48.298;11.620;2023-04-26T06:49:34;96375.75;;;6.07;100.00
46724;BME280;32463;48.298;11.620;2023-04-26T06:52:00;96374.34;;;6.34;100.00
46724;BME280;32463;48.298;11.620;2023-04-26T06:54:30;96368.59;;;6.70;100.00
46724;BME280;32463;48.298;11.620;2023-04-26T06:56:56;96372.28;;;6.97;100.00
46724;BME280;32463;48.298;11.620;2023-04-26T06:59:23;96377.44;;;6.97;100.00
46724;BME280;32463;48.298;11.620;2023-04-26T07:01:49;96378.47;;;6.65;100.00
46724;BME280;32463;48.298;11.620;2023-04-26T07:04:16;96383.91;;;6.82;100.00
46724;BME280;32463;48.298;11.620;2023-04-26T07:06:44;96380.09;;;6.76;100.00
46724;BME280;32463;48.298;11.620;2023-04-26T07:09:11;96389.38;;;7.27;100.00
46724;BME280;32463;48.298;11.620;2023-04-26T07:11:39;96387.19;;;7.13;100.00
46724;BME280;32463;48.298;11.620;2023-04-26T07:14:05;96381.50;;;7.28;100.00
46724;BME280;32463;48.298;11.620;2023-04-26T07:16:32;96381.47;;;7.09;100.00
46724;BME280;32463;48.298;11.620;2023-04-26T07:18:59;96372.81;;;7.10;100.00
46724;BME280;32463;48.298;11.620;2023-04-26T07:21:26;96361.91;;;7.55;100.00
46724;BME280;32463;48.298;11.620;2023-04-26T07:23:55;96363.09;;;8.07;100.00
46724;BME280;32463;48.298;11.620;2023-04-26T07:26:23;96365.41;;;8.00;100.00
46724;BME280;32463;48.298;11.620;2023-04-26T07:28:50;96372.41;;;7.90;100.00
46724;BME280;32463;48.298;11.620;2023-04-26T07:31:18;96376.72;;;8.27;100.00
46724;BME280;32463;48.298;11.620;2023-04-26T07:33:44;96371.41;;;8.38;100.00
46724;BME280;32463;48.298;11.620;2023-04-26T07:36:11;96366.97;;;7.93;100.00
46724;BME280;32463;48.298;11.620;2023-04-26T07:38:37;96366.59;;;8.16;100.00
46724;BME280;32463;48.298;11.620;2023-04-26T07:41:04;96365.53;;;8.46;100.00
46724;BME280;32463;48.298;11.620;2023-04-26T07:43:30;96364.72;;;8.63;100.00
46724;BME280;32463;48.298;11.620;2023-04-26T07:46:00;96358.53;;;8.91;100.00
46724;BME280;32463;48.298;11.620;2023-04-26T07:48:27;96360.97;;;9.28;100.00
46724;BME280;32463;48.298;11.620;2023-04-26T07:50:54;96363.28;;;9.14;100.00
46724;BME280;32463;48.298;11.620;2023-04-26T07:53:21;96363.81;;;9.17;100.00
46724;BME280;32463;48.298;11.620;2023-04-26T07:55:49;96366.38;;;8.99;100.00
46724;BME280;32463;48.298;11.620;2023-04-26T07:58:16;96373.28;;;8.46;100.00
46724;BME280;32463;48.298;11.620;2023-04-26T08:00:43;96367.88;;;8.39;100.00
46724;BME280;32463;48.298;11.620;2023-04-26T08:03:09;96367.78;;;8.94;100.00
46724;BME280;32463;48.298;11.620;2023-04-26T08:05:36;96362.00;;;9.35;100.00
46724;BME280;32463;48.298;11.620;2023-04-26T08:08:03;96373.78;;;9.12;97.27
46724;BME280;32463;48.298;11.620;2023-04-26T08:10:29;96362.75;;;8.92;100.00
46724;BME280;32463;48.298;11.620;2023-04-26T08:12:56;96370.59;;;8.83;100.00
46724;BME280;32463;48.298;11.620;2023-04-26T08:15:27;96372.38;;;9.00;100.00
46724;BME280;32463;48.298;11.620;2023-04-26T08:17:53;96359.81;;;9.05;100.00
46724;BME280;32463;48.298;11.620;2023-04-26T08:20:20;96368.75;;;9.10;100.00
46724;BME280;32463;48.298;11.620;2023-04-26T08:22:46;96362.28;;;9.76;100.00
46724;BME280;32463;48.298;11.620;2023-04-26T08:25:14;96364.66;;;10.21;93.00
46724;BME280;32463;48.298;11.620;2023-04-26T08:27:40;96357.69;;;10.64;89.70
46724;BME280;32463;48.298;11.620;2023-04-26T08:30:09;96358.41;;;10.98;81.33
46724;BME280;32463;48.298;11.620;2023-04-26T08:32:35;96361.44;;;11.02;80.83
46724;BME280;32463;48.298;11.620;2023-04-26T08:35:03;96353.16;;;10.66;78.63
46724;BME280;32463;48.298;11.620;2023-04-26T08:37:29;96359.38;;;10.39;84.43
46724;BME280;32463;48.298;11.620;2023-04-26T08:39:56;96354.28;;;10.71;83.65
46724;BME280;32463;48.298;11.620;2023-04-26T08:42:25;96352.50;;;10.64;82.56
46724;BME280;32463;48.298;11.620;2023-04-26T08:44:53;96364.53;;;10.31;84.68
46724;BME280;32463;48.298;11.620;2023-04-26T08:50:00;96347.19;;;9.97;89.82
46724;BME280;32463;48.298;11.620;2023-04-26T08:52:30;96351.53;;;10.23;88.95
46724;BME280;32463;48.298;11.620;2023-04-26T08:54:58;96359.00;;;10.26;78.38
46724;BME280;32463;48.298;11.620;2023-04-26T08:57:26;96356.41;;;10.26;79.89
46724;BME280;32463;48.298;11.620;2023-04-26T08:59:54;96364.88;;;10.44;78.84
46724;BME280;32463;48.298;11.620;2023-04-26T09:02:22;96356.22;;;10.61;74.30
46724;BME280;32463;48.298;11.620;2023-04-26T09:04:50;96357.47;;;10.49;74.88
46724;BME280;32463;48.298;11.620;2023-04-26T09:07:21;96354.34;;;11.12;80.02
46724;BME280;32463;48.298;11.620;2023-04-26T09:09:53;96363.41;;;10.92;72.14
46724;BME280;32463;48.298;11.620;2023-04-26T09:12:20;96353.38;;;11.45;68.48
46724;BME280;32463;48.298;11.620;2023-04-26T09:14:47;96366.44;;;10.63;70.68
46724;BME280;32463;48.298;11.620;2023-04-26T09:17:30;96357.88;;;11.03;71.27
46724;BME280;32463;48.298;11.620;2023-04-26T09:19:58;96352.06;;;11.58;71.43
46724;BME280;32463;48.298;11.620;2023-04-26T09:22:35;96344.91;;;11.84;69.17
46724;BME280;32463;48.298;11.620;2023-04-26T09:25:04;96352.97;;;11.97;66.42
46724;BME280;32463;48.298;11.620;2023-04-26T09:35:19;96340.13;;;12.04;58.52
46724;BME280;32463;48.298;11.620;2023-04-26T09:38:04;96343.94;;;11.77;63.25
46724;BME280;32463;48.298;11.620;2023-04-26T09:40:38;96350.72;;;11.94;62.10
46724;BME280;32463;48.298;11.620;2023-04-26T09:45:42;96338.56;;;11.62;60.86
46724;BME280;32463;48.298;11.620;2023-04-26T09:48:23;96338.56;;;11.87;61.47
46724;BME280;32463;48.298;11.620;2023-04-26T09:50:52;96331.59;;;11.63;62.57
46724;BME280;32463;48.298;11.620;2023-04-26T09:53:35;96342.88;;;12.19;59.90
46724;BME280;32463;48.298;11.620;2023-04-26T09:56:14;96343.97;;;12.55;58.17
46724;BME280;32463;48.298;11.620;2023-04-26T10:01:22;96327.31;;;12.41;54.56
46724;BME280;32463;48.298;11.620;2023-04-26T10:03:49;96336.28;;;11.75;59.35
46724;BME280;32463;48.298;11.620;2023-04-26T10:06:16;96334.47;;;12.00;57.87
46724;BME280;32463;48.298;11.620;2023-04-26T10:08:43;96340.00;;;11.97;58.90
46724;BME280;32463;48.298;11.620;2023-04-26T10:11:10;96339.94;;;12.13;58.32
46724;BME280;32463;48.298;11.620;2023-04-26T10:13:37;96335.34;;;11.52;62.13
46724;BME280;32463;48.298;11.620;2023-04-26T10:16:05;96346.41;;;11.13;65.65
46724;BME280;32463;48.298;11.620;2023-04-26T10:18:32;96341.88;;;10.41;69.87
46724;BME280;32463;48.298;11.620;2023-04-26T10:21:09;96337.19;;;10.10;76.45
46724;BME280;32463;48.298;11.620;2023-04-26T10:23:37;96339.94;;;10.09;82.28
46724;BME280;32463;48.298;11.620;2023-04-26T10:26:04;96334.19;;;9.89;84.76
46724;BME280;32463;48.298;11.620;2023-04-26T10:31:10;96338.56;;;9.63;88.19
46724;BME280;32463;48.298;11.620;2023-04-26T10:33:37;96344.16;;;9.76;87.22
46724;BME280;32463;48.298;11.620;2023-04-26T10:36:06;96343.03;;;9.53;87.35
46724;BME280;32463;48.298;11.620;2023-04-26T10:38:35;96336.03;;;9.71;86.45
46724;BME280;32463;48.298;11.620;2023-04-26T10:41:33;96340.19;;;9.64;80.95
46724;BME280;32463;48.298;11.620;2023-04-26T10:47:06;96322.28;;;9.70;81.66
46724;BME280;32463;48.298;11.620;2023-04-26T10:49:43;96332.38;;;9.82;83.44
46724;BME280;32463;48.298;11.620;2023-04-26T10:52:16;96331.59;;;9.89;79.08
46724;BME280;32463;48.298;11.620;2023-04-26T10:54:57;96324.44;;;9.83;80.08
46724;BME280;32463;48.298;11.620;2023-04-26T10:57:47;96320.69;;;10.45;73.76
46724;BME280;32463;48.298;11.620;2023-04-26T11:00:19;96327.25;;;10.24;71.76
46724;BME280;32463;48.298;11.620;2023-04-26T11:02:51;96322.66;;;10.60;70.64
46724;BME280;32463;48.298;11.620;2023-04-26T11:05:56;96312.47;;;11.47;67.22
46724;BME280;32463;48.298;11.620;2023-04-26T11:08:25;96301.53;;;12.32;64.82
46724;BME280;32463;48.298;11.620;2023-04-26T11:11:04;96305.47;;;13.27;60.52
46724;BME280;32463;48.298;11.620;2023-04-26T11:13:35;96294.38;;;13.10;56.44
46724;BME280;32463;48.298;11.620;2023-04-26T11:16:04;96287.38;;;14.07;55.10
46724;BME280;32463;48.298;11.620;2023-04-26T11:18:32;96284.56;;;14.53;55.82
46724;BME280;32463;48.298;11.620;2023-04-26T11:20:59;96269.84;;;14.31;54.34
46724;BME280;32463;48.298;11.620;2023-04-26T11:23:27;96259.84;;;15.69;48.24
46724;BME280;32463;48.298;11.620;2023-04-26T11:25:58;96264.97;;;16.31;46.99
46724;BME280;32463;48.298;11.620;2023-04-26T11:28:27;96260.25;;;16.61;45.00
46724;BME280;32463;48.298;11.620;2023-04-26T11:30:53;96257.09;;;16.72;47.98
46724;BME280;32463;48.298;11.620;2023-04-26T11:33:20;96273.66;;;17.06;46.13
46724;BME280;32463;48.298;11.620;2023-04-26T11:35:48;96265.94;;;17.97;41.85
46724;BME280;32463;48.298;11.620;2023-04-26T11:38:16;96270.72;;;18.64;44.18
46724;BME280;32463;48.298;11.620;2023-04-26T11:40:43;96275.63;;;18.92;40.17
46724;BME280;32463;48.298;11.620;2023-04-26T11:43:10;96278.88;;;18.43;41.07
46724;BME280;32463;48.298;11.620;2023-04-26T11:45:37;96265.38;;;19.34;42.10
46724;BME280;32463;48.298;11.620;2023-04-26T11:48:06;96259.97;;;18.28;39.95
46724;BME280;32463;48.298;11.620;2023-04-26T11:50:34;96259.28;;;19.15;40.50
46724;BME280;32463;48.298;11.620;2023-04-26T11:53:04;96258.44;;;20.07;39.10
46724;BME280;32463;48.298;11.620;2023-04-26T11:55:32;96263.69;;;20.44;36.30
46724;BME280;32463;48.298;11.620;2023-04-26T11:58:10;96261.84;;;16.49;40.62
46724;BME280;32463;48.298;11.620;2023-04-26T12:01:26;96270.69;;;15.66;45.05
46724;BME280;32463;48.298;11.620;2023-04-26T12:03:55;96270.22;;;16.99;41.92
46724;BME280;32463;48.298;11.620;2023-04-26T12:06:40;96267.28;;;16.06;44.60
46724;BME280;32463;48.298;11.620;2023-04-26T12:09:07;96276.13;;;16.05;46.05
46724;BME280;32463;48.298;11.620;2023-04-26T12:11:35;96263.34;;;17.50;42.97
46724;BME280;32463;48.298;11.620;2023-04-26T12:14:02;96267.47;;;16.46;42.34
46724;BME280;32463;48.298;11.620;2023-04-26T12:16:29;96267.41;;;15.08;46.90
46724;BME280;32463;48.298;11.620;2023-04-26T12:18:55;96271.97;;;15.76;46.50
46724;BME280;32463;48.298;11.620;2023-04-26T12:21:23;96266.06;;;15.40;47.06
46724;BME280;32463;48.298;11.620;2023-04-26T12:23:50;96258.59;;;15.09;47.46
46724;BME280;32463;48.298;11.620;2023-04-26T12:26:16;96267.22;;;15.93;46.34
46724;BME280;32463;48.298;11.620;2023-04-26T12:28:44;96270.53;;;16.08;46.57
46724;BME280;32463;48.298;11.620;2023-04-26T12:31:10;96264.38;;;17.23;44.22
46724;BME280;32463;48.298;11.620;2023-04-26T12:33:37;96266.13;;;17.95;40.01
46724;BME280;32463;48.298;11.620;2023-04-26T12:36:08;96264.31;;;17.89;40.55
46724;BME280;32463;48.298;11.620;2023-04-26T12:38:35;96262.72;;;17.88;40.90
46724;BME280;32463;48.298;11.620;2023-04-26T12:41:03;96263.16;;;16.99;41.11
46724;BME280;32463;48.298;11.620;2023-04-26T12:43:30;96265.03;;;16.51;43.59
46724;BME280;32463;48.298;11.620;2023-04-26T12:45:56;96256.69;;;16.75;42.15
46724;BME280;32463;48.298;11.620;2023-04-26T12:48:23;96257.53;;;17.02;40.94
46724;BME280;32463;48.298;11.620;2023-04-26T12:50:49;96256.88;;;16.67;41.82
46724;BME280;32463;48.298;11.620;2023-04-26T12:53:16;96254.16;;;16.41;42.07
46724;BME280;32463;48.298;11.620;2023-04-26T12:55:43;96243.69;;;16.41;42.95
46724;BME280;32463;48.298;11.620;2023-04-26T12:58:09;96233.53;;;15.42;42.75
46724;BME280;32463;48.298;11.620;2023-04-26T13:00:36;96245.88;;;15.83;43.85
46724;BME280;32463;48.298;11.620;2023-04-26T13:03:02;96232.03;;;16.50;41.78
46724;BME280;32463;48.298;11.620;2023-04-26T13:05:29;96233.97;;;17.09;41.80
46724;BME280;32463;48.298;11.620;2023-04-26T13:07:56;96233.31;;;16.67;40.99
46724;BME280;32463;48.298;11.620;2023-04-26T13:10:24;96221.59;;;16.63;41.40
46724;BME280;32463;48.298;11.620;2023-04-26T13:12:50;96231.31;;;16.69;40.01
46724;BME280;32463;48.298;11.620;2023-04-26T13:15:18;96229.59;;;16.42;42.23